• Join FlightAware (Why Join?)
  • Login
  • US Flag GB Flag 
09:02 EST


 

Airport Tracker/Info


-or-


 

Live Flight TrackerFlight Track Log ✈ N5372V ✈ 18-Apr-2014 ✈ KLEX - KFNT

Flight Track Log - Related Links

Times and Time Zones

All times are in EDT time to prevent confusion due to time zone crossing. See the N5372V flight status page for this flight to view local times or setup timezone preferences in your user account.

Time Position Orientation Groundspeed Altitude Reporting Facility
EDT Latitude Longitude Course Direction KTS MPH feet Rate Location/Type
21:35 38.0939 -84.5842 North 76 87 3,000  Level Indianapolis Center
21:36 38.1147 -84.5825 North 74 85 3,600 600 Climbing Indianapolis Center
21:37 38.1378 -84.5775 10° North 76 87 4,300 660 Climbing Indianapolis Center
21:38 38.1586 -84.5750 North 76 87 5,000 600 Climbing Indianapolis Center
21:39 38.2353 -84.5688 North  Level FlightAware Approximate
21:39 38.1783 -84.5711 North 76 87 5,600  Level Indianapolis Center
21:40 38.2690 -84.5635 North  Level FlightAware Approximate
21:40 38.1981 -84.5678 North 76 87 6,100  Level Indianapolis Center
21:41 38.3026 -84.5579 North  Level FlightAware Approximate
21:41 38.2189 -84.5650 North 76 87 6,700  Level Indianapolis Center
21:42 38.2392 -84.5622 North 76 87 7,100 180 Climbing Indianapolis Center
21:43 38.2642 -84.5600 North 78 90 7,100  Level Indianapolis Center
21:44 38.2969 -84.5550 North 96 110 7,100  Level Indianapolis Center
21:45 38.3356 -84.5467 10° North 110 127 7,100  Level Indianapolis Center
21:46 38.3678 -84.5411 North 112 129 7,100  Level Indianapolis Center
21:47 38.3994 -84.5364 North 112 129 7,100  Level Indianapolis Center
21:48 38.4308 -84.5314 North 112 129 7,100  Level Indianapolis Center
21:50 38.4622 -84.5258 North 112 129 7,100  Level Indianapolis Center
21:51 38.4939 -84.5203 North 113 130 7,100  Level Indianapolis Center
21:52 38.5258 -84.5158 North 114 131 7,100  Level Indianapolis Center
21:53 38.5572 -84.5097 North 114 131 7,100  Level Indianapolis Center
21:54 38.5892 -84.5047 North 114 131 7,100  Level Indianapolis Center
21:55 38.6206 -84.5008 North 114 131 7,100  Level Indianapolis Center
21:56 38.6547 -84.4953 North 114 131 7,100  Level Indianapolis Center
21:57 38.6869 -84.4892 North 114 131 7,100  Level Indianapolis Center
21:58 38.7203 -84.4856 North 119 137 7,100  Level Indianapolis Center
21:59 38.7519 -84.4778 11° North 119 137 7,100  Level Indianapolis Center
22:00 38.7850 -84.4733 North 119 137 7,100  Level Indianapolis Center
22:01 38.8192 -84.4744 359° North 119 137 7,100  Level Indianapolis Center
22:02 38.8567 -84.4794 354° North 118 136 7,100  Level Indianapolis Center
22:03 38.8900 -84.4822 356° North 118 136 7,100  Level Indianapolis Center
22:04 38.9225 -84.4864 354° North 118 136 7,100  Level Indianapolis Center
22:05 38.9558 -84.4797 North 118 136 7,100  Level Indianapolis Center
22:06 38.9886 -84.4753 North 119 137 7,100  Level Indianapolis Center
22:06 39.0142 -84.4714 North 122 140 7,100  Level Indianapolis Center
22:07 39.0233 -84.4689 12° North 121 139 7,100  Level Indianapolis Center
22:08 39.0564 -84.4633 North 121 139 7,100  Level Indianapolis Center
22:09 39.0903 -84.4578 North 121 139 7,100  Level Indianapolis Center
22:10 39.1233 -84.4514 North 121 139 7,100  Level Indianapolis Center
22:11 39.1564 -84.4458 North 121 139 7,100  Level Indianapolis Center
22:12 39.1969 -84.4389 North 121 139 7,100  Level Indianapolis Center
22:13 39.2311 -84.4322 North 121 139 7,100  Level Indianapolis Center
22:14 39.2672 -84.4278 North 123 142 7,100  Level Indianapolis Center
22:15 39.3058 -84.4211 North 121 139 7,100  Level Indianapolis Center
22:16 39.3322 -84.4150 10° North 122 140 7,100  Level Indianapolis Center
22:17 39.3675 -84.4092 North 122 140 7,100  Level Indianapolis Center
22:18 39.4019 -84.4031 North 122 140 7,100  Level Indianapolis Center
22:19 39.4350 -84.3972 North 122 140 7,100  Level Indianapolis Center
22:20 39.4778 -84.3897 North 124 143 7,100  Level Indianapolis Center
22:21 39.5039 -84.3844 North 123 142 7,100  Level Indianapolis Center
22:22 39.5386 -84.3794 North 125 144 7,100  Level Indianapolis Center
22:23 39.5806 -84.3728 North 128 147 7,100  Level Indianapolis Center
22:24 39.6172 -84.3658 North 128 147 7,100  Level Indianapolis Center
22:25 39.6472 -84.3606 North 128 147 7,100  Level Indianapolis Center
22:26 39.6839 -84.3533 North 129 148 7,100  Level Indianapolis Center
22:27 39.7231 -84.3469 North 127 146 7,100  Level Indianapolis Center
22:28 39.7567 -84.3419 North 130 150 7,100  Level Indianapolis Center
22:29 39.7911 -84.3344 North 129 148 7,100  Level Indianapolis Center
22:30 39.8300 -84.3272 North 127 146 7,100  Level Indianapolis Center
22:31 39.8639 -84.3231 North 132 152 7,100  Level Indianapolis Center
22:32 39.8983 -84.3156 North 128 147 7,100  Level Indianapolis Center
22:33 39.9347 -84.3086 North 132 152 7,100  Level Indianapolis Center
22:33 39.9389 -84.3081 North 130 150 7,100  Level Indianapolis Center
22:34 39.9775 -84.3025 North 130 150 7,100  Level Indianapolis Center
22:35 40.0100 -84.2956 North 130 150 7,100  Level Indianapolis Center
22:36 40.0472 -84.2894 North 130 150 7,100  Level Indianapolis Center
22:37 40.0892 -84.2817 North 131 151 7,100  Level Indianapolis Center
22:38 40.1264 -84.2736 North 131 151 7,100  Level Indianapolis Center
22:39 40.1636 -84.2683 North 131 151 7,100  Level Indianapolis Center
22:40 40.1994 -84.2617 North 131 151 7,100  Level Indianapolis Center
22:42 40.2394 -84.2539 North 132 152 7,100  Level Indianapolis Center
22:43 40.2725 -84.2486 North 131 151 7,100  Level Indianapolis Center
22:44 40.3092 -84.2419 North 131 151 7,100  Level Indianapolis Center
22:45 40.3461 -84.2347 North 131 151 7,100  Level Indianapolis Center
22:46 40.3828 -84.2283 North 131 151 7,100  Level Indianapolis Center
22:47 40.4183 -84.2217 North 131 151 7,100  Level Indianapolis Center
22:49 40.4883 -84.2097 North 129 148 7,100  Level Cleveland Center
22:50 40.5233 -84.2036 North 129 148 7,100  Level Cleveland Center
22:51 40.5589 -84.1967 North 129 148 7,100  Level Cleveland Center
22:52 40.6006 -84.1894 North 130 150 7,100  Level Indianapolis Center
22:53 40.6367 -84.1831 North 130 150 7,100  Level Indianapolis Center
22:54 40.6725 -84.1756 North 130 150 7,100  Level Indianapolis Center
22:55 40.7083 -84.1689 North 130 150 7,100 -60 Level Indianapolis Center
22:56 40.7450 -84.1631 North 130 150 7,000 -60 Descending Indianapolis Center
22:57 40.7817 -84.1556 North 130 150 7,000  Level Indianapolis Center
22:58 40.8175 -84.1500 North 130 150 7,000  Level Indianapolis Center
22:59 40.8519 -84.1428 North 130 150 7,000  Level Indianapolis Center
23:00 40.8869 -84.1364 North 130 150 7,000  Level Indianapolis Center
23:01 40.9164 -84.1311 North 126 145 7,000  Level Cleveland Center
23:02 40.9572 -84.1247 North 125 144 7,000  Level Cleveland Center
23:03 40.9919 -84.1164 10° North 125 144 7,000  Level Cleveland Center
23:04 41.0269 -84.1111 North 125 144 7,000  Level Cleveland Center
23:05 41.0606 -84.1050 North 125 144 7,000  Level Cleveland Center
23:06 41.0953 -84.0992 North 125 144 7,000  Level Cleveland Center
23:07 41.1283 -84.0914 10° North 125 144 7,000  Level Cleveland Center
23:08 41.1631 -84.0875 North 125 144 7,000  Level Cleveland Center
23:09 41.1961 -84.0792 11° North 124 143 7,000  Level Cleveland Center
23:10 41.2308 -84.0742 North 124 143 7,000  Level Cleveland Center
23:11 41.2650 -84.0667 North 124 143 7,000  Level Cleveland Center
23:12 41.2992 -84.0611 North 124 143 7,000  Level Cleveland Center
23:13 41.3331 -84.0536 North 124 143 7,000  Level Cleveland Center
23:14 41.3678 -84.0489 North 124 143 7,000  Level Cleveland Center
23:14 41.3917 -84.0469 North 126 145 7,000  Level Cleveland Center
23:15 41.4011 -84.0414 24° Northeast 123 142 7,000  Level Cleveland Center
23:16 41.4356 -84.0344 North 123 142 7,000  Level Cleveland Center
23:17 41.4683 -84.0289 North 123 142 7,000  Level Cleveland Center
23:18 41.5094 -84.0206 North 123 142 7,000  Level Cleveland Center
23:19 41.5431 -84.0158 North 123 142 7,000  Level Cleveland Center
23:20 41.5758 -84.0092 North 122 140 7,000  Level Cleveland Center
23:21 41.6103 -84.0019 North 123 142 7,000  Level Cleveland Center
23:21 41.6200 -84.0003 North 122 140 7,000 60 Level Cleveland Center
23:22 41.6450 -83.9956 North 124 143 7,100  Climbing Cleveland Center
23:22 41.6542 -83.9944 North 122 140 7,000  Descending Cleveland Center
23:23 41.6767 -83.9906 North 121 139 7,100  Climbing Cleveland Center
23:23 41.6861 -83.9878 12° North 122 140 7,000  Descending Cleveland Center
23:24 41.7108 -83.9836 North 121 139 7,100  Climbing Cleveland Center
23:25 41.7444 -83.9778 North 122 140 7,100 -60 Level Cleveland Center
23:26 41.7842 -83.9689 North 122 140 7,000 -60 Descending Cleveland Center
23:27 41.8183 -83.9628 North 124 143 7,000  Level Cleveland Center
23:28 41.8522 -83.9567 North 124 143 7,000  Level Cleveland Center
23:29 41.8808 -83.9517 North 124 143 7,100  Climbing Cleveland Center
23:30 41.9164 -83.9439 North 125 144 7,000 -60 Descending Cleveland Center
23:31 41.9525 -83.9381 North 123 142 7,000  Level Cleveland Center
23:32 41.9864 -83.9319 North 123 142 7,000  Level Cleveland Center
23:33 42.0186 -83.9256 North 123 142 7,000  Level Cleveland Center
23:34 42.0525 -83.9192 North 123 142 7,000  Level Cleveland Center
23:35 42.0867 -83.9131 North 123 142 7,000  Level Cleveland Center
23:36 42.1208 -83.9069 North 123 142 7,000  Level Cleveland Center
23:37 42.1569 -83.8983 10° North 125 144 7,000  Level Cleveland Center
23:39 42.2272 -83.8861 North 126 145 7,000  Level Cleveland Center
23:40 42.2647 -83.8786 North 124 143 7,100  Climbing Cleveland Center
23:41 42.3000 -83.8719 North 125 144 7,100 -60 Level Cleveland Center
23:42 42.3253 -83.8669 North 127 146 7,000  Descending Cleveland Center
23:42 42.3353 -83.8650 North 125 144 7,100  Climbing Cleveland Center
23:43 42.3614 -83.8611 North 128 147 7,000  Descending Cleveland Center
23:43 42.3706 -83.8586 11° North 125 144 7,100  Climbing Cleveland Center
23:44 42.3975 -83.8553 North 129 148 7,000  Descending Cleveland Center
23:44 42.4058 -83.8514 19° North 125 144 7,100  Climbing Cleveland Center
23:45 42.4339 -83.8464 North 131 151 7,000  Descending Cleveland Center
23:45 42.4422 -83.8450 North 127 146 7,100 60 Climbing Cleveland Center
23:46 42.4783 -83.8383 North 128 147 7,100  Level Cleveland Center
23:47 42.5139 -83.8308 North 128 147 7,100  Level Cleveland Center
23:48 42.5497 -83.8247 North 128 147 7,100  Level Cleveland Center
23:49 42.5858 -83.8175 North 128 147 7,100  Level Cleveland Center
23:50 42.6206 -83.8108 North 128 147 7,100 -240 Level Cleveland Center
23:51 42.6578 -83.8033 North 129 148 6,700 -480 Descending Cleveland Center
23:52 42.7025 -83.7947 North 141 162 6,200 -540 Descending Cleveland Center